sensor_id;sensor_type;location;lat;lon;timestamp;P1;durP1;ratioP1;P2;durP2;ratioP2
38465;SDS011;24244;51.950;5.902;2022-12-10T00:00:08;16.27;;;7.35;;
38465;SDS011;24244;51.950;5.902;2022-12-10T00:02:35;12.43;;;6.57;;
38465;SDS011;24244;51.950;5.902;2022-12-10T00:05:03;16.48;;;7.80;;
38465;SDS011;24244;51.950;5.902;2022-12-10T00:07:33;11.98;;;6.40;;
38465;SDS011;24244;51.950;5.902;2022-12-10T00:10:01;13.68;;;6.32;;
38465;SDS011;24244;51.950;5.902;2022-12-10T00:12:36;16.05;;;7.47;;
38465;SDS011;24244;51.950;5.902;2022-12-10T00:15:02;15.27;;;7.78;;
38465;SDS011;24244;51.950;5.902;2022-12-10T00:17:30;16.13;;;6.97;;
38465;SDS011;24244;51.950;5.902;2022-12-10T00:19:56;13.95;;;6.70;;
38465;SDS011;24244;51.950;5.902;2022-12-10T00:22:23;16.58;;;8.35;;
38465;SDS011;24244;51.950;5.902;2022-12-10T00:24:50;14.77;;;7.65;;
38465;SDS011;24244;51.950;5.902;2022-12-10T00:27:18;13.48;;;6.68;;
38465;SDS011;24244;51.950;5.902;2022-12-10T00:29:45;15.63;;;7.03;;
38465;SDS011;24244;51.950;5.902;2022-12-10T00:32:12;14.57;;;7.47;;
38465;SDS011;24244;51.950;5.902;2022-12-10T00:34:38;12.70;;;6.53;;
38465;SDS011;24244;51.950;5.902;2022-12-10T00:37:05;13.13;;;6.90;;
38465;SDS011;24244;51.950;5.902;2022-12-10T00:39:32;16.85;;;8.10;;
38465;SDS011;24244;51.950;5.902;2022-12-10T00:41:58;15.80;;;8.80;;
38465;SDS011;24244;51.950;5.902;2022-12-10T00:44:26;14.95;;;6.78;;
38465;SDS011;24244;51.950;5.902;2022-12-10T00:46:53;15.15;;;7.75;;
38465;SDS011;24244;51.950;5.902;2022-12-10T00:49:20;15.30;;;7.00;;
38465;SDS011;24244;51.950;5.902;2022-12-10T00:51:49;14.90;;;6.78;;
38465;SDS011;24244;51.950;5.902;2022-12-10T00:54:16;14.63;;;6.53;;
38465;SDS011;24244;51.950;5.902;2022-12-10T00:56:42;14.90;;;6.95;;
38465;SDS011;24244;51.950;5.902;2022-12-10T00:59:09;14.85;;;6.97;;
38465;SDS011;24244;51.950;5.902;2022-12-10T01:01:38;14.18;;;7.13;;
38465;SDS011;24244;51.950;5.902;2022-12-10T01:04:07;15.30;;;7.15;;
38465;SDS011;24244;51.950;5.902;2022-12-10T01:06:36;13.13;;;6.50;;
38465;SDS011;24244;51.950;5.902;2022-12-10T01:09:11;13.30;;;6.47;;
38465;SDS011;24244;51.950;5.902;2022-12-10T01:11:39;16.40;;;7.00;;
38465;SDS011;24244;51.950;5.902;2022-12-10T01:14:08;12.50;;;6.75;;
38465;SDS011;24244;51.950;5.902;2022-12-10T01:16:38;16.95;;;7.85;;
38465;SDS011;24244;51.950;5.902;2022-12-10T01:19:05;13.30;;;6.38;;
38465;SDS011;24244;51.950;5.902;2022-12-10T01:21:32;16.05;;;7.90;;
38465;SDS011;24244;51.950;5.902;2022-12-10T01:23:59;16.85;;;6.80;;
38465;SDS011;24244;51.950;5.902;2022-12-10T01:26:26;14.38;;;7.03;;
38465;SDS011;24244;51.950;5.902;2022-12-10T01:28:55;11.77;;;5.85;;
38465;SDS011;24244;51.950;5.902;2022-12-10T01:31:23;13.00;;;7.55;;
38465;SDS011;24244;51.950;5.902;2022-12-10T01:33:52;15.73;;;7.32;;
38465;SDS011;24244;51.950;5.902;2022-12-10T01:36:21;13.55;;;6.75;;
38465;SDS011;24244;51.950;5.902;2022-12-10T01:38:50;14.55;;;6.65;;
38465;SDS011;24244;51.950;5.902;2022-12-10T01:41:17;13.73;;;7.07;;
38465;SDS011;24244;51.950;5.902;2022-12-10T01:43:51;15.93;;;8.38;;
38465;SDS011;24244;51.950;5.902;2022-12-10T01:46:21;15.68;;;6.70;;
38465;SDS011;24244;51.950;5.902;2022-12-10T01:48:50;15.73;;;7.22;;
38465;SDS011;24244;51.950;5.902;2022-12-10T01:51:19;14.10;;;6.32;;
38465;SDS011;24244;51.950;5.902;2022-12-10T01:53:46;14.98;;;7.80;;
38465;SDS011;24244;51.950;5.902;2022-12-10T01:56:15;12.70;;;5.93;;
38465;SDS011;24244;51.950;5.902;2022-12-10T01:58:43;15.30;;;7.28;;
38465;SDS011;24244;51.950;5.902;2022-12-10T02:01:11;12.93;;;6.55;;
38465;SDS011;24244;51.950;5.902;2022-12-10T02:03:44;17.25;;;6.60;;
38465;SDS011;24244;51.950;5.902;2022-12-10T02:08:54;13.98;;;5.97;;
38465;SDS011;24244;51.950;5.902;2022-12-10T02:11:29;14.02;;;6.70;;
38465;SDS011;24244;51.950;5.902;2022-12-10T02:14:03;14.65;;;7.20;;
38465;SDS011;24244;51.950;5.902;2022-12-10T02:16:36;15.65;;;7.10;;
38465;SDS011;24244;51.950;5.902;2022-12-10T02:19:10;17.48;;;7.88;;
38465;SDS011;24244;51.950;5.902;2022-12-10T02:21:45;14.13;;;6.78;;
38465;SDS011;24244;51.950;5.902;2022-12-10T02:24:15;14.73;;;6.50;;
38465;SDS011;24244;51.950;5.902;2022-12-10T02:26:49;16.38;;;6.55;;
38465;SDS011;24244;51.950;5.902;2022-12-10T02:29:22;16.00;;;7.78;;
38465;SDS011;24244;51.950;5.902;2022-12-10T02:34:21;12.32;;;5.97;;
38465;SDS011;24244;51.950;5.902;2022-12-10T02:36:51;15.30;;;7.68;;
38465;SDS011;24244;51.950;5.902;2022-12-10T02:39:22;13.57;;;6.22;;
38465;SDS011;24244;51.950;5.902;2022-12-10T02:44:22;18.10;;;6.47;;
38465;SDS011;24244;51.950;5.902;2022-12-10T02:46:53;14.95;;;6.75;;
38465;SDS011;24244;51.950;5.902;2022-12-10T02:49:23;14.85;;;7.43;;
38465;SDS011;24244;51.950;5.902;2022-12-10T02:51:52;12.05;;;5.82;;
38465;SDS011;24244;51.950;5.902;2022-12-10T02:54:34;16.30;;;7.18;;
38465;SDS011;24244;51.950;5.902;2022-12-10T02:57:08;13.40;;;6.60;;
38465;SDS011;24244;51.950;5.902;2022-12-10T02:59:47;12.90;;;7.63;;
38465;SDS011;24244;51.950;5.902;2022-12-10T03:02:28;16.25;;;6.43;;
38465;SDS011;24244;51.950;5.902;2022-12-10T03:05:00;15.68;;;7.50;;
38465;SDS011;24244;51.950;5.902;2022-12-10T03:07:32;17.52;;;7.70;;
38465;SDS011;24244;51.950;5.902;2022-12-10T03:10:02;15.07;;;6.90;;
38465;SDS011;24244;51.950;5.902;2022-12-10T03:12:35;14.43;;;6.97;;
38465;SDS011;24244;51.950;5.902;2022-12-10T03:15:09;14.65;;;7.22;;
38465;SDS011;24244;51.950;5.902;2022-12-10T03:17:38;13.57;;;6.60;;
38465;SDS011;24244;51.950;5.902;2022-12-10T03:20:08;15.05;;;6.95;;
38465;SDS011;24244;51.950;5.902;2022-12-10T03:22:37;15.38;;;7.15;;
38465;SDS011;24244;51.950;5.902;2022-12-10T03:25:07;16.10;;;7.45;;
38465;SDS011;24244;51.950;5.902;2022-12-10T03:27:37;16.33;;;8.30;;
38465;SDS011;24244;51.950;5.902;2022-12-10T03:30:08;14.35;;;7.05;;
38465;SDS011;24244;51.950;5.902;2022-12-10T03:32:36;17.98;;;7.88;;
38465;SDS011;24244;51.950;5.902;2022-12-10T03:35:04;18.00;;;7.32;;
38465;SDS011;24244;51.950;5.902;2022-12-10T03:37:32;14.98;;;6.60;;
38465;SDS011;24244;51.950;5.902;2022-12-10T03:40:00;15.48;;;6.93;;
38465;SDS011;24244;51.950;5.902;2022-12-10T03:42:28;15.38;;;6.75;;
38465;SDS011;24244;51.950;5.902;2022-12-10T03:44:55;16.88;;;7.50;;
38465;SDS011;24244;51.950;5.902;2022-12-10T03:47:23;16.80;;;8.35;;
38465;SDS011;24244;51.950;5.902;2022-12-10T03:49:50;15.02;;;7.47;;
38465;SDS011;24244;51.950;5.902;2022-12-10T03:52:17;17.17;;;7.88;;
38465;SDS011;24244;51.950;5.902;2022-12-10T03:54:44;15.60;;;7.93;;
38465;SDS011;24244;51.950;5.902;2022-12-10T03:57:10;19.25;;;7.43;;
38465;SDS011;24244;51.950;5.902;2022-12-10T03:59:37;17.23;;;7.28;;
38465;SDS011;24244;51.950;5.902;2022-12-10T04:02:04;16.25;;;7.35;;
38465;SDS011;24244;51.950;5.902;2022-12-10T04:04:32;15.05;;;6.80;;
38465;SDS011;24244;51.950;5.902;2022-12-10T04:06:59;16.23;;;8.18;;
38465;SDS011;24244;51.950;5.902;2022-12-10T04:09:25;19.15;;;7.97;;
38465;SDS011;24244;51.950;5.902;2022-12-10T04:11:54;17.63;;;8.23;;
38465;SDS011;24244;51.950;5.902;2022-12-10T04:14:22;15.63;;;6.90;;
38465;SDS011;24244;51.950;5.902;2022-12-10T04:17:08;13.57;;;7.07;;
38465;SDS011;24244;51.950;5.902;2022-12-10T04:19:36;13.15;;;6.47;;
38465;SDS011;24244;51.950;5.902;2022-12-10T04:22:03;15.27;;;6.90;;
38465;SDS011;24244;51.950;5.902;2022-12-10T04:24:48;16.60;;;7.55;;
38465;SDS011;24244;51.950;5.902;2022-12-10T04:27:35;14.07;;;6.97;;
38465;SDS011;24244;51.950;5.902;2022-12-10T04:30:04;15.38;;;7.00;;
38465;SDS011;24244;51.950;5.902;2022-12-10T04:32:33;16.63;;;6.95;;
38465;SDS011;24244;51.950;5.902;2022-12-10T04:35:01;15.32;;;7.57;;
38465;SDS011;24244;51.950;5.902;2022-12-10T04:37:29;21.33;;;8.57;;
38465;SDS011;24244;51.950;5.902;2022-12-10T04:39:57;13.45;;;6.55;;
38465;SDS011;24244;51.950;5.902;2022-12-10T04:42:24;13.48;;;6.70;;
38465;SDS011;24244;51.950;5.902;2022-12-10T04:44:50;11.93;;;6.00;;
38465;SDS011;24244;51.950;5.902;2022-12-10T04:47:17;14.27;;;6.53;;
38465;SDS011;24244;51.950;5.902;2022-12-10T04:49:44;16.60;;;7.60;;
38465;SDS011;24244;51.950;5.902;2022-12-10T04:52:13;17.10;;;7.68;;
38465;SDS011;24244;51.950;5.902;2022-12-10T04:54:41;13.82;;;6.97;;
38465;SDS011;24244;51.950;5.902;2022-12-10T04:57:08;13.93;;;6.15;;
38465;SDS011;24244;51.950;5.902;2022-12-10T04:59:37;13.43;;;6.70;;
38465;SDS011;24244;51.950;5.902;2022-12-10T05:02:03;16.92;;;8.05;;
38465;SDS011;24244;51.950;5.902;2022-12-10T05:04:30;21.92;;;7.90;;
38465;SDS011;24244;51.950;5.902;2022-12-10T05:06:57;21.08;;;8.18;;
38465;SDS011;24244;51.950;5.902;2022-12-10T05:09:25;19.92;;;8.02;;
38465;SDS011;24244;51.950;5.902;2022-12-10T05:11:52;18.00;;;8.93;;
38465;SDS011;24244;51.950;5.902;2022-12-10T05:14:19;17.80;;;7.82;;
38465;SDS011;24244;51.950;5.902;2022-12-10T05:16:46;17.85;;;8.90;;
38465;SDS011;24244;51.950;5.902;2022-12-10T05:19:15;19.33;;;8.23;;
38465;SDS011;24244;51.950;5.902;2022-12-10T05:21:42;30.42;;;11.02;;
38465;SDS011;24244;51.950;5.902;2022-12-10T05:24:29;22.35;;;10.20;;
38465;SDS011;24244;51.950;5.902;2022-12-10T05:26:56;20.30;;;8.68;;
38465;SDS011;24244;51.950;5.902;2022-12-10T05:29:23;20.05;;;9.52;;
38465;SDS011;24244;51.950;5.902;2022-12-10T05:31:50;18.50;;;7.85;;
38465;SDS011;24244;51.950;5.902;2022-12-10T05:34:16;21.17;;;9.13;;
38465;SDS011;24244;51.950;5.902;2022-12-10T05:36:43;19.73;;;8.63;;
38465;SDS011;24244;51.950;5.902;2022-12-10T05:39:10;19.52;;;9.50;;
38465;SDS011;24244;51.950;5.902;2022-12-10T05:41:38;18.52;;;8.32;;
38465;SDS011;24244;51.950;5.902;2022-12-10T05:44:06;23.15;;;8.68;;
38465;SDS011;24244;51.950;5.902;2022-12-10T05:46:34;22.45;;;9.43;;
38465;SDS011;24244;51.950;5.902;2022-12-10T05:49:02;23.42;;;10.02;;
38465;SDS011;24244;51.950;5.902;2022-12-10T05:51:31;18.00;;;8.57;;
38465;SDS011;24244;51.950;5.902;2022-12-10T05:53:59;27.40;;;11.15;;
38465;SDS011;24244;51.950;5.902;2022-12-10T05:56:27;25.88;;;10.43;;
38465;SDS011;24244;51.950;5.902;2022-12-10T05:58:57;28.23;;;10.55;;
38465;SDS011;24244;51.950;5.902;2022-12-10T06:01:25;22.60;;;10.30;;
38465;SDS011;24244;51.950;5.902;2022-12-10T06:03:54;24.90;;;10.32;;
38465;SDS011;24244;51.950;5.902;2022-12-10T06:06:23;19.35;;;9.32;;
38465;SDS011;24244;51.950;5.902;2022-12-10T06:08:50;23.00;;;8.98;;
38465;SDS011;24244;51.950;5.902;2022-12-10T06:11:17;19.45;;;8.20;;
38465;SDS011;24244;51.950;5.902;2022-12-10T06:13:44;19.08;;;9.07;;
38465;SDS011;24244;51.950;5.902;2022-12-10T06:16:18;18.77;;;7.85;;
38465;SDS011;24244;51.950;5.902;2022-12-10T06:18:45;16.83;;;7.43;;
38465;SDS011;24244;51.950;5.902;2022-12-10T06:21:13;22.15;;;9.00;;
38465;SDS011;24244;51.950;5.902;2022-12-10T06:23:41;16.20;;;8.13;;
38465;SDS011;24244;51.950;5.902;2022-12-10T06:26:09;17.45;;;8.25;;
38465;SDS011;24244;51.950;5.902;2022-12-10T06:28:37;17.83;;;8.18;;
38465;SDS011;24244;51.950;5.902;2022-12-10T06:31:05;17.08;;;7.47;;
38465;SDS011;24244;51.950;5.902;2022-12-10T06:33:33;25.25;;;10.20;;
38465;SDS011;24244;51.950;5.902;2022-12-10T06:36:02;18.85;;;9.43;;
38465;SDS011;24244;51.950;5.902;2022-12-10T06:38:30;22.02;;;8.38;;
38465;SDS011;24244;51.950;5.902;2022-12-10T06:40:57;22.73;;;9.85;;
38465;SDS011;24244;51.950;5.902;2022-12-10T06:43:24;21.83;;;8.65;;
38465;SDS011;24244;51.950;5.902;2022-12-10T06:45:53;16.70;;;7.75;;
38465;SDS011;24244;51.950;5.902;2022-12-10T06:48:20;17.05;;;7.35;;
38465;SDS011;24244;51.950;5.902;2022-12-10T06:50:48;27.38;;;10.40;;
38465;SDS011;24244;51.950;5.902;2022-12-10T06:53:15;23.33;;;9.57;;
38465;SDS011;24244;51.950;5.902;2022-12-10T06:55:42;20.00;;;8.20;;
38465;SDS011;24244;51.950;5.902;2022-12-10T06:58:09;19.35;;;8.60;;
38465;SDS011;24244;51.950;5.902;2022-12-10T07:00:35;18.98;;;8.05;;
38465;SDS011;24244;51.950;5.902;2022-12-10T07:03:02;18.20;;;8.52;;
38465;SDS011;24244;51.950;5.902;2022-12-10T07:05:29;20.58;;;8.02;;
38465;SDS011;24244;51.950;5.902;2022-12-10T07:07:57;21.00;;;9.57;;
38465;SDS011;24244;51.950;5.902;2022-12-10T07:10:24;22.58;;;9.57;;
38465;SDS011;24244;51.950;5.902;2022-12-10T07:12:51;21.90;;;8.95;;
38465;SDS011;24244;51.950;5.902;2022-12-10T07:15:18;22.20;;;8.43;;
38465;SDS011;24244;51.950;5.902;2022-12-10T07:17:44;19.00;;;8.27;;
38465;SDS011;24244;51.950;5.902;2022-12-10T07:20:11;18.95;;;8.43;;
38465;SDS011;24244;51.950;5.902;2022-12-10T07:22:38;26.67;;;10.43;;
38465;SDS011;24244;51.950;5.902;2022-12-10T07:25:07;22.67;;;9.43;;
38465;SDS011;24244;51.950;5.902;2022-12-10T07:27:36;19.05;;;7.65;;
38465;SDS011;24244;51.950;5.902;2022-12-10T07:30:03;16.67;;;6.45;;
38465;SDS011;24244;51.950;5.902;2022-12-10T07:32:31;22.23;;;9.05;;
38465;SDS011;24244;51.950;5.902;2022-12-10T07:34:57;23.15;;;8.77;;
38465;SDS011;24244;51.950;5.902;2022-12-10T07:37:24;18.80;;;8.40;;
38465;SDS011;24244;51.950;5.902;2022-12-10T07:39:51;21.77;;;9.02;;
38465;SDS011;24244;51.950;5.902;2022-12-10T07:42:19;20.35;;;8.75;;
38465;SDS011;24244;51.950;5.902;2022-12-10T07:44:47;24.52;;;9.02;;
38465;SDS011;24244;51.950;5.902;2022-12-10T07:47:14;23.42;;;9.73;;
38465;SDS011;24244;51.950;5.902;2022-12-10T07:49:41;18.15;;;7.22;;
38465;SDS011;24244;51.950;5.902;2022-12-10T07:52:08;20.50;;;8.93;;
38465;SDS011;24244;51.950;5.902;2022-12-10T07:54:35;26.92;;;9.25;;
38465;SDS011;24244;51.950;5.902;2022-12-10T07:57:02;22.27;;;9.13;;
38465;SDS011;24244;51.950;5.902;2022-12-10T07:59:30;26.52;;;10.15;;
38465;SDS011;24244;51.950;5.902;2022-12-10T08:01:57;28.25;;;10.05;;
38465;SDS011;24244;51.950;5.902;2022-12-10T08:04:29;25.15;;;9.90;;
38465;SDS011;24244;51.950;5.902;2022-12-10T08:06:56;23.77;;;8.63;;
38465;SDS011;24244;51.950;5.902;2022-12-10T08:09:23;19.75;;;8.20;;
38465;SDS011;24244;51.950;5.902;2022-12-10T08:11:50;22.73;;;8.57;;
38465;SDS011;24244;51.950;5.902;2022-12-10T08:14:17;20.92;;;8.50;;
38465;SDS011;24244;51.950;5.902;2022-12-10T08:16:45;23.58;;;9.13;;
38465;SDS011;24244;51.950;5.902;2022-12-10T08:19:11;21.75;;;7.93;;
38465;SDS011;24244;51.950;5.902;2022-12-10T08:21:46;20.02;;;9.38;;
38465;SDS011;24244;51.950;5.902;2022-12-10T08:24:12;27.88;;;8.98;;
38465;SDS011;24244;51.950;5.902;2022-12-10T08:26:39;20.95;;;7.82;;
38465;SDS011;24244;51.950;5.902;2022-12-10T08:29:06;19.90;;;8.45;;
38465;SDS011;24244;51.950;5.902;2022-12-10T08:31:33;23.85;;;8.63;;
38465;SDS011;24244;51.950;5.902;2022-12-10T08:34:04;19.02;;;7.22;;
38465;SDS011;24244;51.950;5.902;2022-12-10T08:36:38;29.10;;;10.88;;
38465;SDS011;24244;51.950;5.902;2022-12-10T08:39:04;25.55;;;9.00;;
38465;SDS011;24244;51.950;5.902;2022-12-10T08:41:31;25.40;;;10.20;;
38465;SDS011;24244;51.950;5.902;2022-12-10T08:43:58;22.67;;;7.88;;
38465;SDS011;24244;51.950;5.902;2022-12-10T08:46:25;21.58;;;8.98;;
38465;SDS011;24244;51.950;5.902;2022-12-10T08:48:52;22.80;;;8.13;;
38465;SDS011;24244;51.950;5.902;2022-12-10T08:51:20;19.48;;;8.20;;
38465;SDS011;24244;51.950;5.902;2022-12-10T08:53:48;17.60;;;7.80;;
38465;SDS011;24244;51.950;5.902;2022-12-10T08:56:15;16.70;;;7.10;;
38465;SDS011;24244;51.950;5.902;2022-12-10T08:58:41;20.77;;;8.60;;
38465;SDS011;24244;51.950;5.902;2022-12-10T09:01:09;18.08;;;7.63;;
38465;SDS011;24244;51.950;5.902;2022-12-10T09:03:37;19.77;;;8.10;;
38465;SDS011;24244;51.950;5.902;2022-12-10T09:06:05;16.23;;;6.75;;
38465;SDS011;24244;51.950;5.902;2022-12-10T09:08:36;18.70;;;7.00;;
38465;SDS011;24244;51.950;5.902;2022-12-10T09:11:06;20.58;;;7.97;;
38465;SDS011;24244;51.950;5.902;2022-12-10T09:13:34;19.42;;;7.03;;
38465;SDS011;24244;51.950;5.902;2022-12-10T09:16:01;22.38;;;8.63;;
38465;SDS011;24244;51.950;5.902;2022-12-10T09:18:29;27.30;;;9.70;;
38465;SDS011;24244;51.950;5.902;2022-12-10T09:20:56;22.02;;;9.13;;
38465;SDS011;24244;51.950;5.902;2022-12-10T09:23:23;18.85;;;7.28;;
38465;SDS011;24244;51.950;5.902;2022-12-10T09:25:51;21.48;;;9.02;;
38465;SDS011;24244;51.950;5.902;2022-12-10T09:28:17;19.35;;;7.25;;
38465;SDS011;24244;51.950;5.902;2022-12-10T09:30:44;17.67;;;6.47;;
38465;SDS011;24244;51.950;5.902;2022-12-10T09:33:12;18.98;;;8.20;;
38465;SDS011;24244;51.950;5.902;2022-12-10T09:35:39;18.00;;;7.28;;
38465;SDS011;24244;51.950;5.902;2022-12-10T09:38:07;17.25;;;7.43;;
38465;SDS011;24244;51.950;5.902;2022-12-10T09:40:36;19.42;;;7.43;;
38465;SDS011;24244;51.950;5.902;2022-12-10T09:43:12;15.35;;;6.97;;
38465;SDS011;24244;51.950;5.902;2022-12-10T09:45:46;15.27;;;6.75;;
38465;SDS011;24244;51.950;5.902;2022-12-10T09:48:25;19.70;;;6.47;;
38465;SDS011;24244;51.950;5.902;2022-12-10T09:50:58;24.27;;;8.82;;
38465;SDS011;24244;51.950;5.902;2022-12-10T09:53:35;21.98;;;8.23;;
38465;SDS011;24244;51.950;5.902;2022-12-10T09:56:04;19.83;;;8.32;;
38465;SDS011;24244;51.950;5.902;2022-12-10T09:58:34;19.90;;;7.15;;
38465;SDS011;24244;51.950;5.902;2022-12-10T10:01:04;18.67;;;8.32;;
38465;SDS011;24244;51.950;5.902;2022-12-10T10:03:34;21.52;;;7.95;;
38465;SDS011;24244;51.950;5.902;2022-12-10T10:06:04;20.08;;;7.47;;
38465;SDS011;24244;51.950;5.902;2022-12-10T10:08:37;20.70;;;7.93;;
38465;SDS011;24244;51.950;5.902;2022-12-10T10:11:08;17.10;;;7.03;;
38465;SDS011;24244;51.950;5.902;2022-12-10T10:13:40;18.38;;;7.60;;
38465;SDS011;24244;51.950;5.902;2022-12-10T10:16:16;25.25;;;9.15;;
38465;SDS011;24244;51.950;5.902;2022-12-10T10:18:48;22.25;;;8.68;;
38465;SDS011;24244;51.950;5.902;2022-12-10T10:21:21;23.15;;;8.68;;
38465;SDS011;24244;51.950;5.902;2022-12-10T10:23:49;17.02;;;7.30;;
38465;SDS011;24244;51.950;5.902;2022-12-10T10:26:16;24.33;;;8.70;;
38465;SDS011;24244;51.950;5.902;2022-12-10T10:28:44;21.30;;;7.03;;
38465;SDS011;24244;51.950;5.902;2022-12-10T10:31:17;21.35;;;8.20;;
38465;SDS011;24244;51.950;5.902;2022-12-10T10:33:48;23.60;;;8.43;;
38465;SDS011;24244;51.950;5.902;2022-12-10T10:36:17;20.60;;;7.80;;
38465;SDS011;24244;51.950;5.902;2022-12-10T10:38:49;26.52;;;8.40;;
38465;SDS011;24244;51.950;5.902;2022-12-10T10:41:16;25.15;;;9.48;;
38465;SDS011;24244;51.950;5.902;2022-12-10T10:43:44;22.67;;;7.95;;
38465;SDS011;24244;51.950;5.902;2022-12-10T10:46:12;24.30;;;9.52;;
38465;SDS011;24244;51.950;5.902;2022-12-10T10:48:41;18.95;;;7.10;;
38465;SDS011;24244;51.950;5.902;2022-12-10T10:51:12;20.92;;;9.30;;
38465;SDS011;24244;51.950;5.902;2022-12-10T10:53:50;21.58;;;9.25;;
38465;SDS011;24244;51.950;5.902;2022-12-10T10:56:21;24.48;;;9.68;;
38465;SDS011;24244;51.950;5.902;2022-12-10T10:58:53;23.35;;;9.13;;
38465;SDS011;24244;51.950;5.902;2022-12-10T11:01:23;23.17;;;8.95;;
38465;SDS011;24244;51.950;5.902;2022-12-10T11:03:53;20.55;;;7.95;;
38465;SDS011;24244;51.950;5.902;2022-12-10T11:06:21;17.02;;;7.63;;
38465;SDS011;24244;51.950;5.902;2022-12-10T11:08:49;23.73;;;8.43;;
38465;SDS011;24244;51.950;5.902;2022-12-10T11:11:20;17.30;;;7.72;;
38465;SDS011;24244;51.950;5.902;2022-12-10T11:13:53;19.80;;;7.53;;
38465;SDS011;24244;51.950;5.902;2022-12-10T11:16:21;16.70;;;6.75;;
38465;SDS011;24244;51.950;5.902;2022-12-10T11:18:54;14.65;;;5.68;;
38465;SDS011;24244;51.950;5.902;2022-12-10T11:21:28;17.23;;;6.88;;
38465;SDS011;24244;51.950;5.902;2022-12-10T11:23:56;18.92;;;8.40;;
38465;SDS011;24244;51.950;5.902;2022-12-10T11:26:28;19.88;;;7.50;;
38465;SDS011;24244;51.950;5.902;2022-12-10T11:32:06;26.42;;;10.10;;
38465;SDS011;24244;51.950;5.902;2022-12-10T11:34:43;21.27;;;8.40;;
38465;SDS011;24244;51.950;5.902;2022-12-10T11:37:22;19.42;;;8.82;;
38465;SDS011;24244;51.950;5.902;2022-12-10T11:40:02;21.88;;;7.60;;
38465;SDS011;24244;51.950;5.902;2022-12-10T11:42:41;21.40;;;7.82;;
38465;SDS011;24244;51.950;5.902;2022-12-10T11:45:15;25.67;;;10.45;;
38465;SDS011;24244;51.950;5.902;2022-12-10T11:47:51;25.20;;;8.38;;
38465;SDS011;24244;51.950;5.902;2022-12-10T11:50:33;24.13;;;8.88;;
38465;SDS011;24244;51.950;5.902;2022-12-10T11:53:11;16.30;;;6.10;;
38465;SDS011;24244;51.950;5.902;2022-12-10T11:55:47;19.08;;;7.07;;
38465;SDS011;24244;51.950;5.902;2022-12-10T11:58:27;16.42;;;6.57;;
38465;SDS011;24244;51.950;5.902;2022-12-10T12:01:05;16.25;;;7.20;;
38465;SDS011;24244;51.950;5.902;2022-12-10T12:03:54;19.73;;;7.55;;
38465;SDS011;24244;51.950;5.902;2022-12-10T12:06:35;23.17;;;8.13;;
38465;SDS011;24244;51.950;5.902;2022-12-10T12:09:19;19.65;;;6.75;;
38465;SDS011;24244;51.950;5.902;2022-12-10T12:11:55;20.42;;;9.20;;
38465;SDS011;24244;51.950;5.902;2022-12-10T12:14:34;22.23;;;8.50;;
38465;SDS011;24244;51.950;5.902;2022-12-10T12:19:48;16.45;;;6.95;;
38465;SDS011;24244;51.950;5.902;2022-12-10T12:22:21;17.92;;;5.93;;
38465;SDS011;24244;51.950;5.902;2022-12-10T12:27:22;20.65;;;6.53;;
38465;SDS011;24244;51.950;5.902;2022-12-10T12:30:00;21.75;;;8.15;;
38465;SDS011;24244;51.950;5.902;2022-12-10T12:32:37;21.55;;;7.68;;
38465;SDS011;24244;51.950;5.902;2022-12-10T12:35:14;23.63;;;7.57;;
38465;SDS011;24244;51.950;5.902;2022-12-10T12:37:47;20.02;;;6.47;;
38465;SDS011;24244;51.950;5.902;2022-12-10T12:40:23;17.23;;;6.72;;
38465;SDS011;24244;51.950;5.902;2022-12-10T12:42:56;17.92;;;6.90;;
38465;SDS011;24244;51.950;5.902;2022-12-10T12:45:30;20.02;;;8.63;;
38465;SDS011;24244;51.950;5.902;2022-12-10T12:48:01;22.02;;;8.00;;
38465;SDS011;24244;51.950;5.902;2022-12-10T12:50:39;21.15;;;7.82;;
38465;SDS011;24244;51.950;5.902;2022-12-10T12:53:11;15.73;;;5.72;;
38465;SDS011;24244;51.950;5.902;2022-12-10T12:55:44;18.23;;;7.72;;
38465;SDS011;24244;51.950;5.902;2022-12-10T12:58:22;16.52;;;6.78;;
38465;SDS011;24244;51.950;5.902;2022-12-10T13:00:57;19.65;;;7.82;;
38465;SDS011;24244;51.950;5.902;2022-12-10T13:03:32;21.25;;;7.45;;
38465;SDS011;24244;51.950;5.902;2022-12-10T13:06:13;19.10;;;6.97;;
38465;SDS011;24244;51.950;5.902;2022-12-10T13:08:46;15.80;;;6.70;;
38465;SDS011;24244;51.950;5.902;2022-12-10T13:11:18;18.58;;;7.20;;
38465;SDS011;24244;51.950;5.902;2022-12-10T13:14:02;16.20;;;6.05;;
38465;SDS011;24244;51.950;5.902;2022-12-10T13:16:46;18.38;;;6.93;;
38465;SDS011;24244;51.950;5.902;2022-12-10T13:19:26;18.38;;;6.45;;
38465;SDS011;24244;51.950;5.902;2022-12-10T13:21:59;16.58;;;5.75;;
38465;SDS011;24244;51.950;5.902;2022-12-10T13:24:48;14.75;;;6.10;;
38465;SDS011;24244;51.950;5.902;2022-12-10T13:27:34;20.13;;;7.53;;
38465;SDS011;24244;51.950;5.902;2022-12-10T13:30:04;18.35;;;6.97;;
38465;SDS011;24244;51.950;5.902;2022-12-10T13:32:47;15.55;;;7.32;;
38465;SDS011;24244;51.950;5.902;2022-12-10T13:35:24;18.60;;;7.60;;
38465;SDS011;24244;51.950;5.902;2022-12-10T13:37:57;21.20;;;7.45;;
38465;SDS011;24244;51.950;5.902;2022-12-10T13:40:38;21.95;;;7.05;;
38465;SDS011;24244;51.950;5.902;2022-12-10T13:43:28;17.02;;;6.47;;
38465;SDS011;24244;51.950;5.902;2022-12-10T13:46:22;16.95;;;6.63;;
38465;SDS011;24244;51.950;5.902;2022-12-10T13:48:51;17.10;;;6.63;;
38465;SDS011;24244;51.950;5.902;2022-12-10T13:51:26;15.32;;;6.15;;
38465;SDS011;24244;51.950;5.902;2022-12-10T13:54:13;18.40;;;7.65;;
38465;SDS011;24244;51.950;5.902;2022-12-10T13:57:03;16.42;;;7.05;;
38465;SDS011;24244;51.950;5.902;2022-12-10T13:59:39;20.88;;;7.65;;
38465;SDS011;24244;51.950;5.902;2022-12-10T14:08:07;17.30;;;5.70;;
38465;SDS011;24244;51.950;5.902;2022-12-10T14:10:42;16.50;;;6.22;;
38465;SDS011;24244;51.950;5.902;2022-12-10T14:13:11;19.63;;;8.68;;
38465;SDS011;24244;51.950;5.902;2022-12-10T14:15:42;16.65;;;6.70;;
38465;SDS011;24244;51.950;5.902;2022-12-10T14:18:18;18.63;;;7.18;;
38465;SDS011;24244;51.950;5.902;2022-12-10T14:20:45;24.88;;;8.82;;
38465;SDS011;24244;51.950;5.902;2022-12-10T14:23:24;20.25;;;7.90;;
38465;SDS011;24244;51.950;5.902;2022-12-10T14:26:14;15.90;;;6.80;;
38465;SDS011;24244;51.950;5.902;2022-12-10T14:28:43;15.07;;;6.80;;
38465;SDS011;24244;51.950;5.902;2022-12-10T14:31:13;12.05;;;5.00;;
38465;SDS011;24244;51.950;5.902;2022-12-10T14:33:43;16.95;;;6.38;;
38465;SDS011;24244;51.950;5.902;2022-12-10T14:36:22;17.25;;;5.70;;
38465;SDS011;24244;51.950;5.902;2022-12-10T14:38:52;17.38;;;6.07;;
38465;SDS011;24244;51.950;5.902;2022-12-10T14:41:23;12.43;;;4.80;;
38465;SDS011;24244;51.950;5.902;2022-12-10T14:43:50;16.30;;;7.10;;
38465;SDS011;24244;51.950;5.902;2022-12-10T14:46:18;13.73;;;6.95;;
38465;SDS011;24244;51.950;5.902;2022-12-10T14:48:50;14.93;;;6.80;;
38465;SDS011;24244;51.950;5.902;2022-12-10T14:51:19;14.15;;;6.50;;
38465;SDS011;24244;51.950;5.902;2022-12-10T14:53:48;11.05;;;4.20;;
38465;SDS011;24244;51.950;5.902;2022-12-10T14:56:18;14.63;;;6.88;;
38465;SDS011;24244;51.950;5.902;2022-12-10T14:58:51;10.55;;;4.53;;
38465;SDS011;24244;51.950;5.902;2022-12-10T15:01:25;17.08;;;6.35;;
38465;SDS011;24244;51.950;5.902;2022-12-10T15:03:58;13.32;;;7.50;;
38465;SDS011;24244;51.950;5.902;2022-12-10T15:06:35;13.25;;;5.18;;
38465;SDS011;24244;51.950;5.902;2022-12-10T15:09:03;12.23;;;4.50;;
38465;SDS011;24244;51.950;5.902;2022-12-10T15:11:33;13.50;;;6.30;;
38465;SDS011;24244;51.950;5.902;2022-12-10T15:14:02;13.65;;;5.13;;